KTYR

Tyler Pounds Regional Airport

Tyler, Texas, USA
KTYR 252322Z 2600/2624 33012KT P6SM VCSH SCT030 OVC050 TEMPO 2600/2603 5SM -SHRA BR OVC030 FM260300 32008KT P6SM SCT030 BKN050 FM260600 30006KT P6SM SCT030 FM261500 29010KT P6SM SCT015 FM261800 32008KT P6SM SCT040
Issued Valid From Valid To
Apr-25 @ 23:22 UTC
(4 hours ago)
Apr-26 @ 00:00 UTC
(4 hours ago)
Apr-27 @ 00:00 UTC
(in 20 hours)
Expired Click to View Apr-26 @ 00:00 to Apr-26 @ 03:00
KTYR 252322Z 2600/2624 33012KT P6SM VCSH SCT030 OVC050
Wind Visibility Clouds
330° at 12 knots Greater than 6 miles
  • Scattered at 3,000' AGL
  • Overcast at 5,000' AGL
Expired Click to View Apr-26 @ 00:00 to Apr-26 @ 03:00
TEMPO 2600/2603 5SM -SHRA BR OVC030
Visibility Clouds Conditions
5 miles
  • Overcast at 3,000' AGL
  • Light Rain
  • Mist
From Apr-26 @ 03:00 to Apr-26 @ 06:00
FM260300 32008KT P6SM SCT030 BKN050
Wind Visibility Clouds
320° at 8 knots Greater than 6 miles
  • Scattered at 3,000' AGL
  • Broken at 5,000' AGL
From Apr-26 @ 06:00 to Apr-26 @ 15:00
FM260600 30006KT P6SM SCT030
Wind Visibility Clouds
300° at 6 knots Greater than 6 miles
  • Scattered at 3,000' AGL
From Apr-26 @ 15:00 to Apr-26 @ 18:00
FM261500 29010KT P6SM SCT015
Wind Visibility Clouds
290° at 10 knots Greater than 6 miles
  • Scattered at 1,500' AGL
From Apr-26 @ 18:00 to Apr-27 @ 00:00
FM261800 32008KT P6SM SCT040
Wind Visibility Clouds
320° at 8 knots Greater than 6 miles
  • Scattered at 4,000' AGL
KTYR 252322Z 2600/2624 33012KT P6SM VCSH SCT030 OVC050 TEMPO 2600/2603 5SM -SHRA BR OVC030 FM260300 32008KT P6SM SCT030 BKN050 FM260600 30006KT P6SM SCT030 FM261500 29010KT P6SM SCT015 FM261800 32008KT P6SM SCT040
Issued Apr-25 @ 23:22 UTC
(4 hours ago)
Valid From Apr-26 @ 00:00 UTC
(4 hours ago)
Valid To Apr-27 @ 00:00 UTC
(in 20 hours)
Apr-26 @ 00:00 - Apr-26 @ 03:00
Wind Visibility
330° at 12 knots Greater than 6 miles
Clouds
  • Scattered at 3,000' AGL
  • Overcast at 5,000' AGL
Apr-26 @ 00:00 - Apr-26 @ 03:00
Clouds
  • Overcast at 3,000' AGL
Conditions
  • Light Rain
  • Mist
From Apr-26 @ 03:00 - Apr-26 @ 06:00
Wind Visibility
320° at 8 knots Greater than 6 miles
Clouds
  • Scattered at 3,000' AGL
  • Broken at 5,000' AGL
From Apr-26 @ 06:00 - Apr-26 @ 15:00
Wind Visibility
300° at 6 knots Greater than 6 miles
Clouds
  • Scattered at 3,000' AGL
From Apr-26 @ 15:00 - Apr-26 @ 18:00
Wind Visibility
290° at 10 knots Greater than 6 miles
Clouds
  • Scattered at 1,500' AGL
From Apr-26 @ 18:00 - Apr-27 @ 00:00
Wind Visibility
320° at 8 knots Greater than 6 miles
Clouds
  • Scattered at 4,000' AGL